Nearby METAR Reports
METARS update every hour


KHZD - Huntingdon, Tennessee, USA
Distance from station: WNW 13mi, 21km
Updated: Tue, 12 Dec 2017 23:15 CST
Clear
Clear
 Wind from calm
Wind: Calm
Temperature: 23°F , -5°C
Dew Point: 18°F , -8°C
Humidity: 80%
Barometer: 30.11 inHg , 1019.6 hPa
Clouds: Clear
Visibility: 10 miles , 16 km
2017/12/13 05:15 KHZD 130515Z AUTO 00000KT 10SM CLR M05/M08 A3011 RMK A01
KPHT - Paris Henry Cty, Tennessee, USA
Distance from station: NNW 22mi, 35km
Updated: Tue, 12 Dec 2017 23:15 CST
Clear
Clear
 Wind from calm
Wind: Calm
Temperature: 23°F , -5°C
Dew Point: 14°F , -10°C
Humidity: 68%
Barometer: 30.10 inHg , 1019.3 hPa
Clouds: Clear
Visibility: 10 miles , 16 km
2017/12/13 05:15 KPHT 130515Z AUTO 00000KT 10SM CLR M05/M10 A3010 RMK A01
 
KPVE - Lexington-Parson, Tennessee, USA
Distance from station: S 27mi, 43km
Updated: Tue, 12 Dec 2017 23:15 CST
Clear
Clear
 Wind from calm
Wind: Calm
Temperature: 25°F , -4°C
Dew Point: 18°F , -8°C
Humidity: 74%
Barometer: 30.13 inHg , 1020.3 hPa
Clouds: Clear
Visibility: 10 miles , 16 km
2017/12/13 05:15 KPVE 130515Z AUTO 00000KT 10SM CLR M04/M08 A3013 RMK A01
KCEY - Murray Kyle-Oak, Kentucky, USA
Distance from station: N 44mi, 71km
Updated: Tue, 12 Dec 2017 21:55 CST
NOT Current
Clear
Clear
 Wind from calm
Wind: Calm
Temperature: 25°F , -4°C
Dew Point: 14°F , -10°C
Humidity: 63%
Barometer: 30.12 inHg , 1020 hPa
Clouds: Clear
Visibility: 10 miles , 16 km
2017/12/13 03:55 KCEY 130355Z AUTO 00000KT 10SM CLR M04/M10 A3012 RMK AO1
 
KUCY - Union City, Tennessee, USA
Distance from station: WNW 48mi, 77km
Updated: Tue, 12 Dec 2017 23:15 CST
Clear
Clear
 Wind from calm
Wind: Calm
Temperature: 23°F , -5°C
Dew Point: 16°F , -9°C
Humidity: 74%
Barometer: 30.12 inHg , 1020 hPa
Clouds: Clear
Visibility: 10 miles , 16 km
2017/12/13 05:15 KUCY 130515Z AUTO 00000KT 10SM CLR M05/M09 A3012 RMK A01
KMKL - Jackson, Tennessee, USA
Distance from station: SW 48mi, 78km
Updated: Tue, 12 Dec 2017 22:53 CST
Clear
Clear
 Wind from S
Wind: S 3 mph , 6 km/h
Temperature: 25°F , -4°C
Dew Point: 19°F , -7°C
Humidity: 80%
Barometer: 30.14 inHg , 1020.7 hPa
Clouds: Clear
Visibility: 10 miles , 16 km
2017/12/13 04:53 KMKL 130453Z AUTO 18003KT 10SM CLR M04/M07 A3014 RMK AO2 SLP208 T10441072
 
KM25 - Mayfield, Kentucky, USA
Distance from station: NNW 54mi, 87km
Updated: Tue, 12 Dec 2017 23:15 CST
Clear
Clear
 Wind from calm
Wind: Calm
Temperature: 25°F , -4°C
Dew Point: 14°F , -10°C
Humidity: 63%
Barometer: 30.12 inHg , 1020 hPa
Clouds: Clear
Visibility: 10 miles , 16 km
2017/12/13 05:15 KM25 130515Z AUTO 00000KT 10SM CLR M04/M10 A3012 RMK AO2
KSZY - Selmer, Tennessee, USA
Distance from station: SSW 59mi, 96km
Updated: Tue, 12 Dec 2017 23:15 CST
Clear
Clear
 Wind from calm
Wind: Calm
Temperature: 27°F , -3°C
Dew Point: 19°F , -7°C
Humidity: 74%
Barometer: 30.12 inHg , 1020 hPa
Clouds: Clear
Visibility: 10 miles , 16 km
2017/12/13 05:15 KSZY 130515Z AUTO 00000KT 10SM CLR M03/M07 A3012 RMK A01
 
KHOP - Hopkinsville, Kentucky, USA
Distance from station: NE 60mi, 97km
Updated: Tue, 12 Dec 2017 22:58 CST
Clear
Clear
 Wind from SSW
Wind: SSW 3 mph , 6 km/h
Temperature: 25°F , -4°C
Dew Point: 10°F , -12°C
Humidity: 54%
Barometer: 30.11 inHg , 1019.6 hPa
Clouds: Clear
Visibility: 10 miles , 16 km
2017/12/13 04:58 KHOP 130458Z AUTO 20003KT 10SM CLR M04/M12 A3011 RMK AO2 SLP203 T10421117 FZRANO $
KSNH - Savannah Hardin, Tennessee, USA
Distance from station: S 60mi, 97km
Updated: Tue, 12 Dec 2017 23:15 CST
Clear
Clear
 Wind from calm
Wind: Calm
Temperature: 25°F , -4°C
Dew Point: 21°F , -6°C
Humidity: 86%
Barometer: 30.13 inHg , 1020.3 hPa
Clouds: Clear
Visibility: 10 miles , 16 km
2017/12/13 05:15 KSNH 130515Z AUTO 00000KT 10SM CLR M04/M06 A3013 RMK A01
 
KCKV - Clarksville, Tennessee, USA
Distance from station: NE 61mi, 98km
Updated: Tue, 12 Dec 2017 22:52 CST
Clear
Clear
 Wind from calm
Wind: Calm
Temperature: 25°F , -4°C
Dew Point: 12°F , -11°C
Humidity: 59%
Barometer: 30.12 inHg , 1020 hPa
Clouds: Clear
Visibility: 10 miles , 16 km
2017/12/13 04:52 KCKV 130452Z AUTO 00000KT 10SM CLR M04/M11 A3012 RMK AO2 SLP204 T10441111
KDYR - Dyersburg, Tennessee, USA
Distance from station: W 65mi, 104km
Updated: Tue, 12 Dec 2017 22:56 CST
Clear
Clear
 Wind from calm
Wind: Calm
Temperature: 28°F , -2°C
Dew Point: 23°F , -5°C
Humidity: 80%
Barometer: 30.15 inHg , 1021 hPa
Clouds: Clear
Visibility: 10 miles , 16 km
2017/12/13 04:56 KDYR 130456Z AUTO 00000KT 10SM CLR M02/M05 A3015 RMK AO2 SLP225 T10221050 FZRANO PNO $
 
KMRC - Columbia, Tennessee, USA
Distance from station: ESE 68mi, 110km
Updated: Tue, 12 Dec 2017 23:15 CST
Clear
Clear
 Wind from calm
Wind: Calm
Temperature: 27°F , -3°C
Dew Point: 12°F , -11°C
Humidity: 54%
Barometer: 30.10 inHg , 1019.3 hPa
Clouds: Clear
Visibility: 10 miles , 16 km
2017/12/13 05:15 KMRC 130515Z AUTO 00000KT 10SM CLR M03/M11 A3010 RMK A01
KM08 - Bolivar/Whitehst, Tennessee, USA
Distance from station: SW 72mi, 117km
Updated: Tue, 12 Dec 2017 23:15 CST
Clear
Clear
 Wind from calm
Wind: Calm
Temperature: 25°F , -4°C
Dew Point: 21°F , -6°C
Humidity: 86%
Barometer: 30.13 inHg , 1020.3 hPa
Clouds: Clear
Visibility: 10 miles , 16 km
2017/12/13 05:15 KM08 130515Z AUTO 00000KT 10SM CLR M04/M06 A3013 RMK A01
 
KJWN - Nashv/JC Tune, Tennessee, USA
Distance from station: E 77mi, 123km
Updated: Tue, 12 Dec 2017 23:15 CST
Clear
Clear
 Wind from calm
Wind: Calm
Temperature: 27°F , -3°C
Dew Point: 14°F , -10°C
Humidity: 59%
Barometer: 30.10 inHg , 1019.3 hPa
Clouds: Clear
Visibility: 10 miles , 16 km
2017/12/13 05:15 KJWN 130515Z AUTO 00000KT 10SM CLR M03/M10 A3010 RMK A01
KPAH - Paducah, Kentucky, USA
Distance from station: NNW 77mi, 124km
Updated: Tue, 12 Dec 2017 22:53 CST
Clear
Clear
 Wind from calm
Wind: Calm
Temperature: 21°F , -6°C
Dew Point: 14°F , -10°C
Humidity: 74%
Barometer: 30.11 inHg , 1019.6 hPa
Clouds: Clear
Visibility: 10 miles , 16 km
2017/12/13 04:53 KPAH 130453Z 00000KT 10SM CLR M06/M10 A3011 RMK AO2 SLP199 T10611100
 
KCRX - Corinth/R Turner, Mississippi, USA
Distance from station: SSW 80mi, 128km
Updated: Tue, 12 Dec 2017 23:15 CST
Clear
Clear
 Wind from calm
Wind: Calm
Temperature: 27°F , -3°C
Dew Point: 19°F , -7°C
Humidity: 74%
Barometer: 30.15 inHg , 1021 hPa
Clouds: Clear
Visibility: 10 miles , 16 km
2017/12/13 05:15 KCRX 130515Z AUTO 00000KT 10SM CLR M03/M07 A3015 RMK AO2
KM04 - Covington Muni, Tennessee, USA
Distance from station: WSW 81mi, 131km
Updated: Tue, 12 Dec 2017 22:05 CST
NOT Current
Clear
Clear
 Wind from calm
Wind: Calm
Temperature: 27°F , -3°C
Dew Point: 19°F , -7°C
Humidity: 74%
Barometer: 30.15 inHg , 1021 hPa
Clouds: Clear
Visibility: 10 miles , 16 km
2017/12/13 04:05 KM04 130405Z AUTO 00000KT 10SM CLR M03/M07 A3015 RMK A01
 
KM91 - Springfield, Tennessee, USA
Distance from station: ENE 82mi, 131km
Updated: Tue, 12 Dec 2017 23:15 CST
Clear
Clear
 Wind from calm
Wind: Calm
Temperature: 25°F , -4°C
Dew Point: 10°F , -12°C
Humidity: 54%
Barometer: 30.09 inHg , 1019 hPa
Clouds: Clear
Visibility: 10 miles , 16 km
2017/12/13 05:15 KM91 130515Z AUTO 00000KT 10SM CLR M04/M12 A3009 RMK A01
KM30 - Metropolis, Illinois, USA
Distance from station: NNW 84mi, 135km
Updated: Tue, 12 Dec 2017 23:15 CST
Clear
Clear
 Wind from calm
Wind: Calm
Temperature: 23°F , -5°C
Dew Point: 16°F , -9°C
Humidity: 74%
Barometer: 30.11 inHg , 1019.6 hPa
Clouds: Clear
Visibility: 10 miles , 16 km
2017/12/13 05:15 KM30 130515Z AUTO 00000KT 10SM CLR M05/M09 A3011 RMK AO2 T10531087
 
KNQA - Millington/88d, Tennessee, USA
Distance from station: WSW 103mi, 165km
Updated: Tue, 12 Dec 2017 22:50 CST
Clear
Clear
 Wind from calm
Wind: Calm
Temperature: 30°F , -1°C
Dew Point: 21°F , -6°C
Humidity: 69%
Barometer: 30.14 inHg , 1020.7 hPa
Clouds: Clear
Visibility: 10 miles , 16 km
2017/12/13 04:50 KNQA 130450Z 00000KT 10SM SKC M01/M06 A3014
K9A4 - Courtland, Alabama, USA
Distance from station: SSE 107mi, 172km
Updated: Thu, 22 Aug 2013 14:15 CDT
NOT Current
Clear
Clear
 Wind from NNE
Wind: NNE 6 mph , 9 km/h
Temperature: 84°F , 29°C
Heat Index: 89°F , 32°C
Dew Point: 72°F , 22°C
Humidity: 66%
Barometer: 30.10 inHg , 1019.3 hPa
Clouds: Clear
Visibility: 10 miles , 16 km
2013/08/22 19:15 K9A4 221915Z AUTO 03005KT 10SM CLR 29/22 A3010 RMK AO2
 
KCGI - Cape Girardeau, Missouri, USA
Distance from station: NW 111mi, 179km
Updated: Tue, 12 Dec 2017 22:53 CST
Clear
Clear
 Wind from S
Wind: S 3 mph , 6 km/h
Temperature: 21°F , -6°C
Dew Point: 16°F , -9°C
Humidity: 80%
Barometer: 30.11 inHg , 1019.6 hPa
Clouds: Clear
Visibility: 10 miles , 16 km
2017/12/13 04:53 KCGI 130453Z AUTO 17003KT 10SM CLR M06/M09 A3011 RMK AO2 SLP198 T10561094